sensor_id;sensor_type;location;lat;lon;timestamp;P1;durP1;ratioP1;P2;durP2;ratioP2
39772;SDS011;25451;51.960;6.250;2022-10-19T00:01:03;3.22;;;1.65;;
39772;SDS011;25451;51.960;6.250;2022-10-19T00:03:36;3.85;;;2.00;;
39772;SDS011;25451;51.960;6.250;2022-10-19T00:08:37;4.43;;;1.75;;
39772;SDS011;25451;51.960;6.250;2022-10-19T00:11:03;3.60;;;1.90;;
39772;SDS011;25451;51.960;6.250;2022-10-19T00:13:28;3.30;;;1.80;;
39772;SDS011;25451;51.960;6.250;2022-10-19T00:15:53;3.95;;;1.90;;
39772;SDS011;25451;51.960;6.250;2022-10-19T00:18:18;4.47;;;1.80;;
39772;SDS011;25451;51.960;6.250;2022-10-19T00:20:44;4.63;;;1.80;;
39772;SDS011;25451;51.960;6.250;2022-10-19T00:23:09;3.77;;;1.93;;
39772;SDS011;25451;51.960;6.250;2022-10-19T00:25:34;3.40;;;1.70;;
39772;SDS011;25451;51.960;6.250;2022-10-19T00:28:01;3.50;;;2.05;;
39772;SDS011;25451;51.960;6.250;2022-10-19T00:30:26;4.83;;;2.13;;
39772;SDS011;25451;51.960;6.250;2022-10-19T00:32:51;4.97;;;2.00;;
39772;SDS011;25451;51.960;6.250;2022-10-19T00:35:17;3.87;;;1.90;;
39772;SDS011;25451;51.960;6.250;2022-10-19T00:37:42;4.30;;;1.80;;
39772;SDS011;25451;51.960;6.250;2022-10-19T00:40:07;2.80;;;1.73;;
39772;SDS011;25451;51.960;6.250;2022-10-19T00:42:33;2.67;;;1.40;;
39772;SDS011;25451;51.960;6.250;2022-10-19T00:44:59;3.93;;;1.93;;
39772;SDS011;25451;51.960;6.250;2022-10-19T00:47:27;5.03;;;1.95;;
39772;SDS011;25451;51.960;6.250;2022-10-19T00:49:53;4.80;;;2.23;;
39772;SDS011;25451;51.960;6.250;2022-10-19T00:52:20;4.15;;;2.00;;
39772;SDS011;25451;51.960;6.250;2022-10-19T00:54:47;3.65;;;2.00;;
39772;SDS011;25451;51.960;6.250;2022-10-19T00:57:14;5.15;;;2.15;;
39772;SDS011;25451;51.960;6.250;2022-10-19T00:59:40;3.95;;;1.88;;
39772;SDS011;25451;51.960;6.250;2022-10-19T01:02:08;4.35;;;1.70;;
39772;SDS011;25451;51.960;6.250;2022-10-19T01:04:35;4.03;;;2.00;;
39772;SDS011;25451;51.960;6.250;2022-10-19T01:07:02;3.92;;;2.10;;
39772;SDS011;25451;51.960;6.250;2022-10-19T01:09:29;3.72;;;1.90;;
39772;SDS011;25451;51.960;6.250;2022-10-19T01:39:40;3.03;;;1.25;;
39772;SDS011;25451;51.960;6.250;2022-10-19T01:42:13;4.60;;;1.35;;
39772;SDS011;25451;51.960;6.250;2022-10-19T01:44:50;2.72;;;1.58;;
39772;SDS011;25451;51.960;6.250;2022-10-19T01:47:22;3.97;;;1.60;;
39772;SDS011;25451;51.960;6.250;2022-10-19T01:49:52;4.37;;;1.63;;
39772;SDS011;25451;51.960;6.250;2022-10-19T01:52:23;2.80;;;1.60;;
39772;SDS011;25451;51.960;6.250;2022-10-19T01:54:51;3.25;;;1.80;;
39772;SDS011;25451;51.960;6.250;2022-10-19T01:57:27;4.47;;;2.10;;
39772;SDS011;25451;51.960;6.250;2022-10-19T01:59:58;4.18;;;2.05;;
39772;SDS011;25451;51.960;6.250;2022-10-19T02:02:31;4.80;;;2.20;;
39772;SDS011;25451;51.960;6.250;2022-10-19T02:04:57;5.53;;;2.20;;
39772;SDS011;25451;51.960;6.250;2022-10-19T02:07:24;3.70;;;2.03;;
39772;SDS011;25451;51.960;6.250;2022-10-19T02:09:50;2.83;;;1.55;;
39772;SDS011;25451;51.960;6.250;2022-10-19T02:12:15;3.80;;;2.20;;
39772;SDS011;25451;51.960;6.250;2022-10-19T02:14:46;3.80;;;2.10;;
39772;SDS011;25451;51.960;6.250;2022-10-19T02:17:16;4.97;;;2.33;;
39772;SDS011;25451;51.960;6.250;2022-10-19T02:19:44;7.95;;;2.00;;
39772;SDS011;25451;51.960;6.250;2022-10-19T02:22:10;3.80;;;1.77;;
39772;SDS011;25451;51.960;6.250;2022-10-19T02:24:36;4.15;;;2.20;;
39772;SDS011;25451;51.960;6.250;2022-10-19T02:27:03;5.87;;;2.20;;
39772;SDS011;25451;51.960;6.250;2022-10-19T02:29:31;7.95;;;2.42;;
39772;SDS011;25451;51.960;6.250;2022-10-19T02:31:57;4.68;;;2.20;;
39772;SDS011;25451;51.960;6.250;2022-10-19T02:34:23;4.83;;;2.50;;
39772;SDS011;25451;51.960;6.250;2022-10-19T02:36:48;3.83;;;1.80;;
39772;SDS011;25451;51.960;6.250;2022-10-19T02:39:14;5.15;;;1.95;;
39772;SDS011;25451;51.960;6.250;2022-10-19T02:44:37;6.40;;;2.58;;
39772;SDS011;25451;51.960;6.250;2022-10-19T02:47:05;5.15;;;2.13;;
39772;SDS011;25451;51.960;6.250;2022-10-19T02:49:35;4.43;;;2.30;;
39772;SDS011;25451;51.960;6.250;2022-10-19T02:52:02;5.07;;;2.38;;
39772;SDS011;25451;51.960;6.250;2022-10-19T02:54:29;6.18;;;2.42;;
39772;SDS011;25451;51.960;6.250;2022-10-19T02:56:55;4.50;;;2.07;;
39772;SDS011;25451;51.960;6.250;2022-10-19T02:59:21;4.38;;;2.17;;
39772;SDS011;25451;51.960;6.250;2022-10-19T03:01:47;4.30;;;2.13;;
39772;SDS011;25451;51.960;6.250;2022-10-19T03:04:12;5.50;;;2.30;;
39772;SDS011;25451;51.960;6.250;2022-10-19T03:06:38;6.37;;;2.20;;
39772;SDS011;25451;51.960;6.250;2022-10-19T03:09:03;5.20;;;2.30;;
39772;SDS011;25451;51.960;6.250;2022-10-19T03:11:28;3.90;;;1.90;;
39772;SDS011;25451;51.960;6.250;2022-10-19T03:13:53;5.23;;;2.17;;
39772;SDS011;25451;51.960;6.250;2022-10-19T03:16:19;3.70;;;2.10;;
39772;SDS011;25451;51.960;6.250;2022-10-19T03:18:46;4.00;;;2.27;;
39772;SDS011;25451;51.960;6.250;2022-10-19T03:21:12;5.40;;;2.22;;
39772;SDS011;25451;51.960;6.250;2022-10-19T03:23:38;3.95;;;2.00;;
39772;SDS011;25451;51.960;6.250;2022-10-19T03:26:04;4.20;;;2.10;;
39772;SDS011;25451;51.960;6.250;2022-10-19T03:28:30;4.70;;;2.30;;
39772;SDS011;25451;51.960;6.250;2022-10-19T03:30:56;6.00;;;2.30;;
39772;SDS011;25451;51.960;6.250;2022-10-19T03:33:22;4.83;;;2.50;;
39772;SDS011;25451;51.960;6.250;2022-10-19T03:35:47;4.88;;;2.15;;
39772;SDS011;25451;51.960;6.250;2022-10-19T03:38:13;4.40;;;2.33;;
39772;SDS011;25451;51.960;6.250;2022-10-19T03:40:38;4.23;;;2.17;;
39772;SDS011;25451;51.960;6.250;2022-10-19T03:43:04;4.17;;;2.17;;
39772;SDS011;25451;51.960;6.250;2022-10-19T03:45:29;4.38;;;2.10;;
39772;SDS011;25451;51.960;6.250;2022-10-19T03:47:55;3.70;;;2.00;;
39772;SDS011;25451;51.960;6.250;2022-10-19T03:50:20;4.13;;;2.30;;
39772;SDS011;25451;51.960;6.250;2022-10-19T03:52:46;3.30;;;1.93;;
39772;SDS011;25451;51.960;6.250;2022-10-19T03:55:13;4.03;;;2.10;;
39772;SDS011;25451;51.960;6.250;2022-10-19T03:57:39;3.58;;;1.90;;
39772;SDS011;25451;51.960;6.250;2022-10-19T04:00:05;4.30;;;2.07;;
39772;SDS011;25451;51.960;6.250;2022-10-19T04:02:31;5.20;;;1.83;;
39772;SDS011;25451;51.960;6.250;2022-10-19T04:04:56;4.17;;;2.13;;
39772;SDS011;25451;51.960;6.250;2022-10-19T04:07:21;3.63;;;1.63;;
39772;SDS011;25451;51.960;6.250;2022-10-19T04:09:46;4.37;;;1.70;;
39772;SDS011;25451;51.960;6.250;2022-10-19T04:12:12;4.13;;;1.70;;
39772;SDS011;25451;51.960;6.250;2022-10-19T04:14:37;3.13;;;1.60;;
39772;SDS011;25451;51.960;6.250;2022-10-19T04:17:03;3.47;;;1.90;;
39772;SDS011;25451;51.960;6.250;2022-10-19T04:19:28;3.05;;;1.67;;
39772;SDS011;25451;51.960;6.250;2022-10-19T04:21:53;3.43;;;1.90;;
39772;SDS011;25451;51.960;6.250;2022-10-19T04:24:19;3.53;;;2.00;;
39772;SDS011;25451;51.960;6.250;2022-10-19T04:26:48;3.93;;;2.10;;
39772;SDS011;25451;51.960;6.250;2022-10-19T04:29:17;3.47;;;1.90;;
39772;SDS011;25451;51.960;6.250;2022-10-19T04:31:44;3.85;;;2.05;;
39772;SDS011;25451;51.960;6.250;2022-10-19T04:34:10;3.47;;;2.00;;
39772;SDS011;25451;51.960;6.250;2022-10-19T04:36:36;5.32;;;2.22;;
39772;SDS011;25451;51.960;6.250;2022-10-19T04:39:02;3.05;;;2.00;;
39772;SDS011;25451;51.960;6.250;2022-10-19T04:41:28;5.70;;;2.28;;
39772;SDS011;25451;51.960;6.250;2022-10-19T04:43:55;3.33;;;1.90;;
39772;SDS011;25451;51.960;6.250;2022-10-19T04:46:21;3.70;;;2.20;;
39772;SDS011;25451;51.960;6.250;2022-10-19T04:48:47;3.40;;;2.10;;
39772;SDS011;25451;51.960;6.250;2022-10-19T04:51:13;3.97;;;2.10;;
39772;SDS011;25451;51.960;6.250;2022-10-19T04:53:39;2.72;;;1.60;;
39772;SDS011;25451;51.960;6.250;2022-10-19T04:56:07;4.13;;;2.08;;
39772;SDS011;25451;51.960;6.250;2022-10-19T04:58:35;3.43;;;2.00;;
39772;SDS011;25451;51.960;6.250;2022-10-19T05:01:10;4.33;;;2.40;;
39772;SDS011;25451;51.960;6.250;2022-10-19T05:03:37;3.45;;;2.00;;
39772;SDS011;25451;51.960;6.250;2022-10-19T05:06:03;6.05;;;2.30;;
39772;SDS011;25451;51.960;6.250;2022-10-19T05:08:29;3.65;;;2.35;;
39772;SDS011;25451;51.960;6.250;2022-10-19T05:10:58;4.70;;;2.47;;
39772;SDS011;25451;51.960;6.250;2022-10-19T05:13:25;5.53;;;2.25;;
39772;SDS011;25451;51.960;6.250;2022-10-19T05:15:56;6.07;;;2.20;;
39772;SDS011;25451;51.960;6.250;2022-10-19T05:18:23;5.97;;;2.17;;
39772;SDS011;25451;51.960;6.250;2022-10-19T05:20:49;3.80;;;2.27;;
39772;SDS011;25451;51.960;6.250;2022-10-19T05:23:14;6.17;;;2.53;;
39772;SDS011;25451;51.960;6.250;2022-10-19T05:25:39;4.83;;;2.90;;
39772;SDS011;25451;51.960;6.250;2022-10-19T05:28:05;4.70;;;2.20;;
39772;SDS011;25451;51.960;6.250;2022-10-19T05:30:30;5.83;;;2.10;;
39772;SDS011;25451;51.960;6.250;2022-10-19T05:32:56;5.75;;;2.40;;
39772;SDS011;25451;51.960;6.250;2022-10-19T05:35:21;5.13;;;2.30;;
39772;SDS011;25451;51.960;6.250;2022-10-19T05:37:47;4.43;;;2.40;;
39772;SDS011;25451;51.960;6.250;2022-10-19T05:40:12;4.23;;;2.40;;
39772;SDS011;25451;51.960;6.250;2022-10-19T05:42:37;3.80;;;2.07;;
39772;SDS011;25451;51.960;6.250;2022-10-19T05:45:03;4.30;;;2.17;;
39772;SDS011;25451;51.960;6.250;2022-10-19T05:47:28;6.00;;;2.40;;
39772;SDS011;25451;51.960;6.250;2022-10-19T05:49:54;4.07;;;1.90;;
39772;SDS011;25451;51.960;6.250;2022-10-19T05:52:19;4.27;;;2.27;;
39772;SDS011;25451;51.960;6.250;2022-10-19T05:54:44;6.93;;;2.35;;
39772;SDS011;25451;51.960;6.250;2022-10-19T05:57:10;3.92;;;2.30;;
39772;SDS011;25451;51.960;6.250;2022-10-19T05:59:35;6.03;;;2.23;;
39772;SDS011;25451;51.960;6.250;2022-10-19T06:02:00;4.03;;;2.27;;
39772;SDS011;25451;51.960;6.250;2022-10-19T06:04:26;3.73;;;2.03;;
39772;SDS011;25451;51.960;6.250;2022-10-19T06:06:51;5.73;;;1.60;;
39772;SDS011;25451;51.960;6.250;2022-10-19T06:09:16;3.40;;;1.70;;
39772;SDS011;25451;51.960;6.250;2022-10-19T06:11:42;3.20;;;1.90;;
39772;SDS011;25451;51.960;6.250;2022-10-19T06:14:11;3.30;;;1.97;;
39772;SDS011;25451;51.960;6.250;2022-10-19T06:16:38;4.10;;;2.00;;
39772;SDS011;25451;51.960;6.250;2022-10-19T06:19:04;3.40;;;2.10;;
39772;SDS011;25451;51.960;6.250;2022-10-19T06:21:30;3.33;;;1.80;;
39772;SDS011;25451;51.960;6.250;2022-10-19T06:23:57;4.30;;;2.00;;
39772;SDS011;25451;51.960;6.250;2022-10-19T06:26:24;2.90;;;2.00;;
39772;SDS011;25451;51.960;6.250;2022-10-19T06:28:53;3.58;;;2.10;;
39772;SDS011;25451;51.960;6.250;2022-10-19T06:31:19;3.30;;;1.83;;
39772;SDS011;25451;51.960;6.250;2022-10-19T06:33:45;3.33;;;2.00;;
39772;SDS011;25451;51.960;6.250;2022-10-19T06:36:15;3.53;;;2.07;;
39772;SDS011;25451;51.960;6.250;2022-10-19T06:38:43;5.22;;;2.17;;
39772;SDS011;25451;51.960;6.250;2022-10-19T06:41:09;4.50;;;1.97;;
39772;SDS011;25451;51.960;6.250;2022-10-19T06:43:35;3.88;;;2.15;;
39772;SDS011;25451;51.960;6.250;2022-10-19T06:46:07;3.20;;;2.00;;
39772;SDS011;25451;51.960;6.250;2022-10-19T06:48:39;3.78;;;2.20;;
39772;SDS011;25451;51.960;6.250;2022-10-19T06:51:05;5.18;;;2.47;;
39772;SDS011;25451;51.960;6.250;2022-10-19T06:53:32;5.60;;;2.70;;
39772;SDS011;25451;51.960;6.250;2022-10-19T06:55:58;3.70;;;2.23;;
39772;SDS011;25451;51.960;6.250;2022-10-19T06:58:25;4.60;;;2.50;;
39772;SDS011;25451;51.960;6.250;2022-10-19T07:00:57;8.60;;;2.73;;
39772;SDS011;25451;51.960;6.250;2022-10-19T07:03:23;7.45;;;2.90;;
39772;SDS011;25451;51.960;6.250;2022-10-19T07:05:53;6.45;;;3.30;;
39772;SDS011;25451;51.960;6.250;2022-10-19T07:08:23;5.28;;;2.85;;
39772;SDS011;25451;51.960;6.250;2022-10-19T07:10:50;7.90;;;3.30;;
39772;SDS011;25451;51.960;6.250;2022-10-19T07:13:16;5.57;;;3.17;;
39772;SDS011;25451;51.960;6.250;2022-10-19T07:15:41;7.45;;;3.53;;
39772;SDS011;25451;51.960;6.250;2022-10-19T07:18:06;8.20;;;3.30;;
39772;SDS011;25451;51.960;6.250;2022-10-19T07:20:32;8.40;;;3.50;;
39772;SDS011;25451;51.960;6.250;2022-10-19T07:22:57;6.30;;;3.30;;
39772;SDS011;25451;51.960;6.250;2022-10-19T07:25:22;7.67;;;3.87;;
39772;SDS011;25451;51.960;6.250;2022-10-19T07:27:48;8.20;;;4.00;;
39772;SDS011;25451;51.960;6.250;2022-10-19T07:30:13;7.50;;;3.93;;
39772;SDS011;25451;51.960;6.250;2022-10-19T07:32:38;8.23;;;3.87;;
39772;SDS011;25451;51.960;6.250;2022-10-19T07:35:04;7.43;;;4.03;;
39772;SDS011;25451;51.960;6.250;2022-10-19T07:37:30;7.38;;;3.70;;
39772;SDS011;25451;51.960;6.250;2022-10-19T07:39:55;7.90;;;3.93;;
39772;SDS011;25451;51.960;6.250;2022-10-19T07:42:20;6.10;;;3.73;;
39772;SDS011;25451;51.960;6.250;2022-10-19T07:44:45;7.97;;;3.90;;
39772;SDS011;25451;51.960;6.250;2022-10-19T07:47:11;7.13;;;3.90;;
39772;SDS011;25451;51.960;6.250;2022-10-19T07:49:36;9.33;;;3.67;;
39772;SDS011;25451;51.960;6.250;2022-10-19T07:52:02;5.68;;;3.20;;
39772;SDS011;25451;51.960;6.250;2022-10-19T07:54:27;6.37;;;3.27;;
39772;SDS011;25451;51.960;6.250;2022-10-19T07:56:53;5.80;;;3.50;;
39772;SDS011;25451;51.960;6.250;2022-10-19T07:59:18;6.73;;;3.03;;
39772;SDS011;25451;51.960;6.250;2022-10-19T08:01:43;6.67;;;3.07;;
39772;SDS011;25451;51.960;6.250;2022-10-19T08:04:09;6.53;;;3.15;;
39772;SDS011;25451;51.960;6.250;2022-10-19T08:06:34;7.80;;;2.77;;
39772;SDS011;25451;51.960;6.250;2022-10-19T08:09:01;7.43;;;3.08;;
39772;SDS011;25451;51.960;6.250;2022-10-19T08:11:28;9.20;;;3.40;;
39772;SDS011;25451;51.960;6.250;2022-10-19T08:13:55;8.10;;;3.20;;
39772;SDS011;25451;51.960;6.250;2022-10-19T08:18:51;6.60;;;2.92;;
39772;SDS011;25451;51.960;6.250;2022-10-19T08:21:19;8.32;;;3.10;;
39772;SDS011;25451;51.960;6.250;2022-10-19T08:23:45;6.87;;;2.80;;
39772;SDS011;25451;51.960;6.250;2022-10-19T08:26:10;7.67;;;2.80;;
39772;SDS011;25451;51.960;6.250;2022-10-19T08:28:35;6.45;;;2.78;;
39772;SDS011;25451;51.960;6.250;2022-10-19T08:31:17;5.80;;;2.85;;
39772;SDS011;25451;51.960;6.250;2022-10-19T08:33:44;7.93;;;2.80;;
39772;SDS011;25451;51.960;6.250;2022-10-19T08:36:10;8.85;;;2.80;;
39772;SDS011;25451;51.960;6.250;2022-10-19T08:38:37;5.93;;;2.65;;
39772;SDS011;25451;51.960;6.250;2022-10-19T08:41:08;6.40;;;2.90;;
39772;SDS011;25451;51.960;6.250;2022-10-19T08:44:04;5.10;;;2.60;;
39772;SDS011;25451;51.960;6.250;2022-10-19T08:49:42;7.55;;;2.60;;
39772;SDS011;25451;51.960;6.250;2022-10-19T08:52:16;5.55;;;2.63;;
39772;SDS011;25451;51.960;6.250;2022-10-19T08:55:31;6.07;;;3.30;;
39772;SDS011;25451;51.960;6.250;2022-10-19T09:00:09;8.80;;;2.45;;
39772;SDS011;25451;51.960;6.250;2022-10-19T09:03:15;7.68;;;2.70;;
39772;SDS011;25451;51.960;6.250;2022-10-19T09:06:15;4.45;;;2.60;;
39772;SDS011;25451;51.960;6.250;2022-10-19T09:08:48;6.03;;;2.63;;
39772;SDS011;25451;51.960;6.250;2022-10-19T09:11:15;6.10;;;2.50;;
39772;SDS011;25451;51.960;6.250;2022-10-19T09:13:47;5.85;;;2.17;;
39772;SDS011;25451;51.960;6.250;2022-10-19T09:16:15;6.13;;;2.33;;
39772;SDS011;25451;51.960;6.250;2022-10-19T09:18:43;5.18;;;2.42;;
39772;SDS011;25451;51.960;6.250;2022-10-19T09:21:14;6.07;;;2.08;;
39772;SDS011;25451;51.960;6.250;2022-10-19T09:26:45;4.35;;;2.20;;
39772;SDS011;25451;51.960;6.250;2022-10-19T09:29:37;6.07;;;2.30;;
39772;SDS011;25451;51.960;6.250;2022-10-19T09:32:08;8.55;;;2.58;;
39772;SDS011;25451;51.960;6.250;2022-10-19T09:34:42;5.97;;;2.30;;
39772;SDS011;25451;51.960;6.250;2022-10-19T09:37:10;3.90;;;1.90;;
39772;SDS011;25451;51.960;6.250;2022-10-19T09:39:36;5.93;;;2.20;;
39772;SDS011;25451;51.960;6.250;2022-10-19T09:42:07;6.20;;;2.23;;
39772;SDS011;25451;51.960;6.250;2022-10-19T09:44:41;6.70;;;2.40;;
39772;SDS011;25451;51.960;6.250;2022-10-19T09:47:26;5.80;;;2.10;;
39772;SDS011;25451;51.960;6.250;2022-10-19T09:50:31;8.27;;;2.10;;
39772;SDS011;25451;51.960;6.250;2022-10-19T09:52:57;5.13;;;1.75;;
39772;SDS011;25451;51.960;6.250;2022-10-19T09:55:41;11.10;;;2.10;;
39772;SDS011;25451;51.960;6.250;2022-10-19T10:00:39;4.45;;;1.75;;
39772;SDS011;25451;51.960;6.250;2022-10-19T10:05:58;8.77;;;2.17;;
39772;SDS011;25451;51.960;6.250;2022-10-19T10:08:29;6.07;;;1.70;;
39772;SDS011;25451;51.960;6.250;2022-10-19T10:13:28;2.70;;;1.00;;
39772;SDS011;25451;51.960;6.250;2022-10-19T10:15:55;2.78;;;1.10;;
39772;SDS011;25451;51.960;6.250;2022-10-19T10:18:24;3.13;;;1.08;;
39772;SDS011;25451;51.960;6.250;2022-10-19T10:21:02;5.60;;;1.50;;
39772;SDS011;25451;51.960;6.250;2022-10-19T10:23:35;3.15;;;0.90;;
39772;SDS011;25451;51.960;6.250;2022-10-19T10:26:02;2.95;;;0.80;;
39772;SDS011;25451;51.960;6.250;2022-10-19T10:28:29;3.25;;;0.80;;
39772;SDS011;25451;51.960;6.250;2022-10-19T10:30:59;3.13;;;0.70;;
39772;SDS011;25451;51.960;6.250;2022-10-19T10:33:28;5.43;;;0.90;;
39772;SDS011;25451;51.960;6.250;2022-10-19T10:36:00;3.92;;;0.70;;
39772;SDS011;25451;51.960;6.250;2022-10-19T10:38:29;3.03;;;0.70;;
39772;SDS011;25451;51.960;6.250;2022-10-19T10:41:00;2.58;;;0.63;;
39772;SDS011;25451;51.960;6.250;2022-10-19T10:43:30;3.95;;;0.90;;
39772;SDS011;25451;51.960;6.250;2022-10-19T10:46:04;1.67;;;0.70;;
39772;SDS011;25451;51.960;6.250;2022-10-19T10:50:57;6.00;;;0.80;;
39772;SDS011;25451;51.960;6.250;2022-10-19T10:55:59;5.07;;;1.10;;
39772;SDS011;25451;51.960;6.250;2022-10-19T10:58:49;4.40;;;1.00;;
39772;SDS011;25451;51.960;6.250;2022-10-19T11:01:17;4.75;;;0.90;;
39772;SDS011;25451;51.960;6.250;2022-10-19T11:03:48;3.60;;;1.00;;
39772;SDS011;25451;51.960;6.250;2022-10-19T11:06:23;4.00;;;0.97;;
39772;SDS011;25451;51.960;6.250;2022-10-19T11:08:51;6.22;;;0.90;;
39772;SDS011;25451;51.960;6.250;2022-10-19T11:14:21;2.88;;;0.90;;
39772;SDS011;25451;51.960;6.250;2022-10-19T11:17:01;6.57;;;1.17;;
39772;SDS011;25451;51.960;6.250;2022-10-19T11:19:38;3.07;;;0.83;;
39772;SDS011;25451;51.960;6.250;2022-10-19T11:30:19;7.35;;;1.17;;
39772;SDS011;25451;51.960;6.250;2022-10-19T11:46:41;4.65;;;0.85;;
39772;SDS011;25451;51.960;6.250;2022-10-19T11:52:17;4.45;;;0.85;;
39772;SDS011;25451;51.960;6.250;2022-10-19T11:57:39;6.05;;;0.82;;
39772;SDS011;25451;51.960;6.250;2022-10-19T12:00:15;6.45;;;1.10;;
39772;SDS011;25451;51.960;6.250;2022-10-19T12:05:12;4.55;;;0.90;;
39772;SDS011;25451;51.960;6.250;2022-10-19T12:10:34;5.80;;;0.80;;
39772;SDS011;25451;51.960;6.250;2022-10-19T12:13:12;5.95;;;1.05;;
39772;SDS011;25451;51.960;6.250;2022-10-19T12:15:42;2.20;;;0.70;;
39772;SDS011;25451;51.960;6.250;2022-10-19T12:18:13;3.92;;;0.80;;
39772;SDS011;25451;51.960;6.250;2022-10-19T12:20:55;2.22;;;0.70;;
39772;SDS011;25451;51.960;6.250;2022-10-19T12:26:02;2.55;;;0.68;;
39772;SDS011;25451;51.960;6.250;2022-10-19T12:28:32;2.70;;;0.70;;
39772;SDS011;25451;51.960;6.250;2022-10-19T12:31:00;5.10;;;1.20;;
39772;SDS011;25451;51.960;6.250;2022-10-19T12:41:06;4.30;;;0.90;;
39772;SDS011;25451;51.960;6.250;2022-10-19T12:51:53;4.32;;;0.90;;
39772;SDS011;25451;51.960;6.250;2022-10-19T12:54:24;4.43;;;0.80;;
39772;SDS011;25451;51.960;6.250;2022-10-19T12:56:52;3.83;;;1.00;;
39772;SDS011;25451;51.960;6.250;2022-10-19T12:59:23;3.80;;;1.20;;
39772;SDS011;25451;51.960;6.250;2022-10-19T13:01:51;2.65;;;0.70;;
39772;SDS011;25451;51.960;6.250;2022-10-19T13:04:20;3.65;;;0.70;;
39772;SDS011;25451;51.960;6.250;2022-10-19T13:06:49;4.87;;;1.13;;
39772;SDS011;25451;51.960;6.250;2022-10-19T13:14:50;2.85;;;0.80;;
39772;SDS011;25451;51.960;6.250;2022-10-19T13:25:29;2.60;;;0.90;;
39772;SDS011;25451;51.960;6.250;2022-10-19T13:38:29;3.78;;;1.00;;
39772;SDS011;25451;51.960;6.250;2022-10-19T13:43:23;2.67;;;0.80;;
39772;SDS011;25451;51.960;6.250;2022-10-19T14:05:53;2.38;;;0.90;;
39772;SDS011;25451;51.960;6.250;2022-10-19T14:10:36;3.75;;;0.75;;
39772;SDS011;25451;51.960;6.250;2022-10-19T14:13:03;2.20;;;0.80;;
39772;SDS011;25451;51.960;6.250;2022-10-19T14:15:31;3.28;;;0.90;;
39772;SDS011;25451;51.960;6.250;2022-10-19T14:17:58;3.58;;;0.90;;
39772;SDS011;25451;51.960;6.250;2022-10-19T14:22:54;2.83;;;1.00;;
39772;SDS011;25451;51.960;6.250;2022-10-19T14:25:21;2.50;;;1.00;;
39772;SDS011;25451;51.960;6.250;2022-10-19T14:27:58;2.87;;;0.93;;
39772;SDS011;25451;51.960;6.250;2022-10-19T14:30:26;2.78;;;0.90;;
39772;SDS011;25451;51.960;6.250;2022-10-19T14:32:55;2.92;;;1.00;;
39772;SDS011;25451;51.960;6.250;2022-10-19T14:35:32;2.90;;;1.10;;
39772;SDS011;25451;51.960;6.250;2022-10-19T14:38:00;3.10;;;0.98;;
39772;SDS011;25451;51.960;6.250;2022-10-19T14:40:32;3.87;;;1.33;;
39772;SDS011;25451;51.960;6.250;2022-10-19T14:43:01;4.05;;;1.50;;
39772;SDS011;25451;51.960;6.250;2022-10-19T14:45:27;4.77;;;1.60;;
39772;SDS011;25451;51.960;6.250;2022-10-19T14:47:59;3.60;;;1.60;;
39772;SDS011;25451;51.960;6.250;2022-10-19T14:50:27;4.68;;;1.50;;
39772;SDS011;25451;51.960;6.250;2022-10-19T14:55:53;7.10;;;1.92;;
39772;SDS011;25451;51.960;6.250;2022-10-19T14:58:21;5.25;;;2.20;;
39772;SDS011;25451;51.960;6.250;2022-10-19T15:00:48;5.28;;;2.03;;
39772;SDS011;25451;51.960;6.250;2022-10-19T15:03:19;8.15;;;2.03;;
39772;SDS011;25451;51.960;6.250;2022-10-19T15:05:48;5.45;;;2.00;;
39772;SDS011;25451;51.960;6.250;2022-10-19T15:11:21;8.88;;;2.28;;
39772;SDS011;25451;51.960;6.250;2022-10-19T15:13:54;4.53;;;1.80;;
39772;SDS011;25451;51.960;6.250;2022-10-19T15:18:54;5.97;;;1.88;;
39772;SDS011;25451;51.960;6.250;2022-10-19T15:21:19;5.70;;;1.80;;
39772;SDS011;25451;51.960;6.250;2022-10-19T15:23:49;5.20;;;1.80;;
39772;SDS011;25451;51.960;6.250;2022-10-19T15:28:51;4.22;;;1.50;;
39772;SDS011;25451;51.960;6.250;2022-10-19T15:31:25;4.70;;;1.58;;
39772;SDS011;25451;51.960;6.250;2022-10-19T15:33:53;4.57;;;1.70;;
39772;SDS011;25451;51.960;6.250;2022-10-19T15:36:20;5.65;;;1.52;;
39772;SDS011;25451;51.960;6.250;2022-10-19T15:39:11;3.63;;;1.40;;
39772;SDS011;25451;51.960;6.250;2022-10-19T15:41:42;4.00;;;1.40;;
39772;SDS011;25451;51.960;6.250;2022-10-19T15:44:28;5.13;;;1.70;;
39772;SDS011;25451;51.960;6.250;2022-10-19T15:52:17;4.05;;;1.55;;
39772;SDS011;25451;51.960;6.250;2022-10-19T15:54:51;4.00;;;1.60;;
39772;SDS011;25451;51.960;6.250;2022-10-19T16:00:05;4.70;;;1.40;;
39772;SDS011;25451;51.960;6.250;2022-10-19T16:02:36;6.93;;;1.67;;
39772;SDS011;25451;51.960;6.250;2022-10-19T16:05:03;3.97;;;1.55;;
39772;SDS011;25451;51.960;6.250;2022-10-19T16:07:30;5.30;;;1.60;;
39772;SDS011;25451;51.960;6.250;2022-10-19T16:09:57;5.13;;;1.70;;
39772;SDS011;25451;51.960;6.250;2022-10-19T16:12:23;4.05;;;1.52;;
39772;SDS011;25451;51.960;6.250;2022-10-19T16:14:50;6.88;;;2.08;;
39772;SDS011;25451;51.960;6.250;2022-10-19T16:17:16;6.20;;;2.42;;
39772;SDS011;25451;51.960;6.250;2022-10-19T16:19:41;4.23;;;1.73;;
39772;SDS011;25451;51.960;6.250;2022-10-19T16:22:07;3.60;;;1.70;;
39772;SDS011;25451;51.960;6.250;2022-10-19T16:24:32;5.50;;;1.73;;
39772;SDS011;25451;51.960;6.250;2022-10-19T16:26:58;4.30;;;1.90;;
39772;SDS011;25451;51.960;6.250;2022-10-19T16:29:23;5.77;;;2.20;;
39772;SDS011;25451;51.960;6.250;2022-10-19T16:31:49;5.75;;;1.90;;
39772;SDS011;25451;51.960;6.250;2022-10-19T16:34:15;5.85;;;2.17;;
39772;SDS011;25451;51.960;6.250;2022-10-19T16:36:40;7.03;;;2.00;;
39772;SDS011;25451;51.960;6.250;2022-10-19T16:39:05;5.77;;;2.20;;
39772;SDS011;25451;51.960;6.250;2022-10-19T16:41:31;5.27;;;2.10;;
39772;SDS011;25451;51.960;6.250;2022-10-19T16:43:56;7.10;;;2.33;;
39772;SDS011;25451;51.960;6.250;2022-10-19T16:46:22;5.70;;;2.20;;
39772;SDS011;25451;51.960;6.250;2022-10-19T16:48:48;8.85;;;2.40;;
39772;SDS011;25451;51.960;6.250;2022-10-19T16:51:18;6.80;;;2.15;;
39772;SDS011;25451;51.960;6.250;2022-10-19T16:53:44;7.68;;;2.40;;
39772;SDS011;25451;51.960;6.250;2022-10-19T16:56:13;7.15;;;2.40;;
39772;SDS011;25451;51.960;6.250;2022-10-19T16:58:39;9.30;;;2.33;;
39772;SDS011;25451;51.960;6.250;2022-10-19T17:01:06;6.38;;;2.20;;
39772;SDS011;25451;51.960;6.250;2022-10-19T17:03:42;5.03;;;2.13;;
39772;SDS011;25451;51.960;6.250;2022-10-19T17:06:08;5.57;;;2.20;;
39772;SDS011;25451;51.960;6.250;2022-10-19T17:08:34;6.40;;;2.50;;
39772;SDS011;25451;51.960;6.250;2022-10-19T17:11:07;8.30;;;2.63;;
39772;SDS011;25451;51.960;6.250;2022-10-19T17:13:37;5.45;;;2.40;;
39772;SDS011;25451;51.960;6.250;2022-10-19T17:16:03;6.10;;;2.33;;
39772;SDS011;25451;51.960;6.250;2022-10-19T17:18:29;6.45;;;2.33;;
39772;SDS011;25451;51.960;6.250;2022-10-19T17:21:00;6.57;;;2.30;;
39772;SDS011;25451;51.960;6.250;2022-10-19T17:23:26;5.53;;;2.10;;
39772;SDS011;25451;51.960;6.250;2022-10-19T17:25:51;5.90;;;2.27;;
39772;SDS011;25451;51.960;6.250;2022-10-19T17:28:17;4.40;;;1.97;;
39772;SDS011;25451;51.960;6.250;2022-10-19T17:30:42;4.17;;;2.10;;
39772;SDS011;25451;51.960;6.250;2022-10-19T17:33:07;5.97;;;2.20;;
39772;SDS011;25451;51.960;6.250;2022-10-19T17:35:33;7.63;;;2.23;;
39772;SDS011;25451;51.960;6.250;2022-10-19T17:37:58;5.05;;;2.00;;
39772;SDS011;25451;51.960;6.250;2022-10-19T17:40:24;7.37;;;2.40;;
39772;SDS011;25451;51.960;6.250;2022-10-19T17:42:49;5.13;;;2.30;;
39772;SDS011;25451;51.960;6.250;2022-10-19T17:45:14;6.45;;;2.10;;
39772;SDS011;25451;51.960;6.250;2022-10-19T17:47:40;4.60;;;1.98;;
39772;SDS011;25451;51.960;6.250;2022-10-19T17:50:05;5.57;;;2.30;;
39772;SDS011;25451;51.960;6.250;2022-10-19T17:52:31;6.10;;;2.07;;
39772;SDS011;25451;51.960;6.250;2022-10-19T17:54:56;7.32;;;2.35;;
39772;SDS011;25451;51.960;6.250;2022-10-19T17:57:21;6.40;;;1.90;;